• Join FlightAware (Why Join?)
  • Login
  • US Flag 
11:46AM EDT


 

Airport Tracker/Info


-or-


 

Live Flight TrackerFlight Track Log ✈ PDT4130 ✈ 05-Jul-2014 ✈ KPHL - KEWR

Flight Track Log - Related Links

Times and Time Zones

All times are in EDT time to prevent confusion due to time zone crossing. See the PDT4130 flight status page for this flight to view local times or setup timezone preferences in your user account.

Time Position Orientation Groundspeed Altitude Reporting Facility
EDT Latitude Longitude Course Direction KTS MPH feet Rate Location/Type
04:26PM 39.8667 -75.2667 90° East 109 125 600  Level Philadelphia TRACON
04:27PM 39.8167 -75.2833 194° South 133 153 2,700 1,020 Climbing Philadelphia TRACON
04:28PM 39.7667 -75.3000 194° South 215 247 3,200 1,260 Climbing Philadelphia TRACON
04:29PM 39.8500 -75.0980 90° East  Level FlightAware Approximate
04:29PM 39.7167 -75.3167 194° South 137 158 5,400  Level Philadelphia TRACON
04:30PM 39.8500 -75.0635 90° East  Level FlightAware Approximate
04:30PM 39.7000 -75.3667 247° West 141 162 6,500  Level Philadelphia TRACON
04:31PM 39.8500 -75.0290 90° East  Level FlightAware Approximate
04:31PM 39.7167 -75.4000 303° West 171 197 7,000  Level Philadelphia TRACON
04:32PM 39.7333 -75.3500 67° East 229 264 7,000  Level Philadelphia TRACON
04:33PM 39.7500 -75.2667 75° East 236 272 7,000  Level Philadelphia TRACON
04:34PM 39.7833 -75.1833 62° Northeast 238 274 7,000  Level Philadelphia TRACON
04:35PM 39.8167 -75.1167 57° Northeast 235 270 7,000  Level Philadelphia TRACON
04:36PM 39.8333 -75.0333 75° East 241 277 7,000  Level Philadelphia TRACON
04:37PM 39.8833 -74.9667 46° Northeast 239 275 7,000  Level Philadelphia TRACON
04:38PM 39.9167 -74.9167 49° Northeast 231 266 7,000  Level Philadelphia TRACON
04:39PM 39.9500 -74.8667 49° Northeast 235 270 7,000  Level New York TRACON
04:40PM 40.0000 -74.8000 46° Northeast 236 272 7,000  Level New York TRACON
04:41PM 40.0333 -74.7333 57° Northeast 234 269 7,100  Climbing New York TRACON
04:42PM 40.0833 -74.6667 46° Northeast 234 269 7,000 -60 Descending New York TRACON
04:43PM 40.1167 -74.6167 49° Northeast 236 272 7,000  Level New York TRACON
04:44PM 40.1667 -74.5667 37° Northeast 231 266 7,100 -120 Climbing New York TRACON
04:45PM 40.2333 -74.5667 360° North 228 262 6,800 -600 Descending New York TRACON
04:46PM 40.3000 -74.5500 11° North 245 282 6,000 -360 Descending New York TRACON
04:47PM 40.3667 -74.5500 360° North 234 269 6,100  Climbing New York TRACON
04:48PM 40.4333 -74.5500 360° North 226 260 6,100 -60 Level New York TRACON
04:49PM 40.4833 -74.5667 346° North 221 254 6,000 -60 Descending New York TRACON
04:50PM 40.5500 -74.5667 360° North 221 254 6,000  Level New York TRACON
04:51PM 40.6167 -74.5833 349° North 221 254 6,100  Climbing New York TRACON
04:52PM 40.6667 -74.5833 360° North 219 252 6,100 -60 Level New York TRACON
04:53PM 40.7333 -74.5833 360° North 222 255 6,000 -60 Descending New York TRACON
04:54PM 40.8000 -74.5833 360° North 220 253 6,000  Level New York TRACON
04:55PM 40.8500 -74.5667 14° North 223 257 6,100 -540 Climbing New York TRACON
04:56PM 40.9167 -74.5667 360° North 243 280 5,000 -540 Descending New York TRACON
04:57PM 40.9833 -74.5500 11° North 238 274 5,000  Level New York TRACON
04:58PM 41.0333 -74.5000 37° Northeast 227 261 5,100  Climbing New York TRACON
04:59PM 41.0667 -74.4333 56° Northeast 221 254 5,100 -60 Level New York TRACON
05:00PM 41.0667 -74.3500 90° East 223 257 5,000  Descending New York TRACON
05:01PM 41.0667 -74.2667 90° East 228 262 5,100  Climbing New York TRACON
05:02PM 41.0333 -74.2000 124° Southeast 232 267 5,100 -480 Level New York TRACON
05:03PM 40.9833 -74.1667 153° Southeast 221 254 4,200 -600 Descending New York TRACON
05:04PM 40.9500 -74.1167 131° Southeast 192 221 4,000 -480 Descending New York TRACON
05:05PM 40.9000 -74.0833 153° Southeast 194 223 3,300 -540 Descending New York TRACON
05:06PM 40.8500 -74.0500 153° Southeast 188 216 3,000 -540 Descending New York TRACON
05:07PM 40.8000 -74.0833 207° Southwest 202 232 2,300 -780 Descending New York TRACON
05:08PM 40.7500 -74.0833 180° South 201 231 1,500 -780 Descending New York TRACON
05:09PM 40.7000 -74.1000 194° South 148 170 800 -600 Descending New York TRACON
05:10PM 40.7000 -74.1333 270° West 104 120 300 -540 Descending New York TRACON
05:12PM 40.6925 -74.1687 254° West  Level Estimated